Time;durP1;ratioP1;P1;durP2;ratioP2;P2;SDS_P1;SDS_P2;PMS_P1;PMS_P2;Temp;Humidity;BMP_temperature;BMP_pressure;BME280_temperature;BME280_humidity;BME280_pressure;Samples;Min_cycle;Max_cycle;Signal;HPM_P1;HPM_P2
2021/05/08 00:02:08;;;;;;;6.17;4.28;;;;;;;4.93;82.29;100381.06;1697518;83;26475;-73
2021/05/08 00:04:35;;;;;;;7.97;4.85;;;;;;;4.98;82.29;100385.42;1653624;85;25855;-73
2021/05/08 00:07:03;;;;;;;6.37;5.12;;;;;;;5.00;82.38;100391.89;1635602;85;25853;-72
2021/05/08 00:09:30;;;;;;;6.42;5.25;;;;;;;5.01;82.42;100383.77;1683340;85;28298;-73
2021/05/08 00:11:58;;;;;;;6.15;4.60;;;;;;;5.03;82.49;100389.75;1673392;85;25869;-72
2021/05/08 00:14:27;;;;;;;7.40;5.67;;;;;;;5.05;82.43;100394.41;1616325;85;25804;-73
2021/05/08 00:16:54;;;;;;;9.60;5.20;;;;;;;5.06;82.47;100390.77;1657546;85;25782;-73
2021/05/08 00:19:23;;;;;;;7.62;5.95;;;;;;;5.05;82.54;100391.75;1678594;85;25788;-73
2021/05/08 00:24:27;;;;;;;9.60;6.65;;;;;;;5.15;82.63;100398.30;1798261;79;25697;-73
2021/05/08 00:26:55;;;;;;;8.60;6.55;;;;;;;5.13;82.75;100402.93;1734847;80;26033;-73
2021/05/08 00:29:22;;;;;;;9.75;6.17;;;;;;;5.16;82.92;100402.59;1746411;80;27521;-73
2021/05/08 00:31:49;;;;;;;8.05;6.55;;;;;;;5.19;82.93;100407.61;1720703;80;26025;-73
2021/05/08 00:34:17;;;;;;;9.20;6.72;;;;;;;5.19;82.95;100406.28;1757982;80;25732;-74
2021/05/08 00:36:44;;;;;;;10.13;7.20;;;;;;;5.22;83.13;100408.11;1714694;80;25889;-73
2021/05/08 00:39:12;;;;;;;9.95;7.58;;;;;;;5.28;83.35;100414.64;1733854;80;26241;-73
2021/05/08 00:41:39;;;;;;;11.15;7.83;;;;;;;5.30;83.39;100412.14;1734622;80;27300;-73
2021/05/08 00:44:06;;;;;;;9.08;8.20;;;;;;;5.32;83.58;100417.31;1767065;80;26236;-73
2021/05/08 00:46:35;;;;;;;12.98;9.13;;;;;;;5.33;83.71;100420.29;1672844;83;25800;-73
2021/05/08 00:49:05;;;;;;;12.88;8.50;;;;;;;5.34;83.75;100416.17;1668835;82;26314;-73
2021/05/08 00:51:32;;;;;;;15.13;10.18;;;;;;;5.38;84.27;100424.16;1671618;83;25971;-72
2021/05/08 00:54:00;;;;;;;13.10;9.35;;;;;;;5.40;84.14;100426.16;1695872;83;27582;-73
2021/05/08 00:56:27;;;;;;;16.37;10.50;;;;;;;5.44;84.37;100432.81;1675802;83;25716;-74
2021/05/08 00:58:55;;;;;;;14.55;10.58;;;;;;;5.46;84.35;100429.99;1689915;82;25809;-73
2021/05/08 01:01:23;;;;;;;12.30;9.68;;;;;;;5.48;84.38;100432.00;1665550;83;25780;-74
2021/05/08 01:03:50;;;;;;;11.33;9.78;;;;;;;5.49;84.48;100438.98;1704550;83;25815;-73
2021/05/08 01:06:18;;;;;;;14.70;10.80;;;;;;;5.50;84.57;100444.63;1687213;83;27525;-73
2021/05/08 01:08:46;;;;;;;12.88;10.30;;;;;;;5.53;84.69;100450.96;1655482;83;26424;-74
2021/05/08 01:11:13;;;;;;;15.65;10.65;;;;;;;5.52;84.67;100447.95;1679042;83;25971;-73
2021/05/08 01:13:40;;;;;;;14.20;11.28;;;;;;;5.53;84.61;100450.96;1700234;83;25715;-73
2021/05/08 01:16:08;;;;;;;15.58;11.53;;;;;;;5.54;85.03;100447.30;1692877;83;25800;-72
2021/05/08 01:18:36;;;;;;;18.52;12.73;;;;;;;5.55;84.76;100455.62;1637677;83;28446;-73
2021/05/08 01:21:10;;;;;;;16.82;11.50;;;;;;;5.59;84.73;100448.16;1686941;83;25842;-73
2021/05/08 01:23:38;;;;;;;15.20;10.78;;;;;;;5.60;85.19;100450.67;1695643;83;25917;-72
2021/05/08 01:26:05;;;;;;;13.93;11.78;;;;;;;5.61;84.66;100451.48;1673754;84;25981;-73
2021/05/08 01:28:33;;;;;;;14.40;10.93;;;;;;;5.63;84.68;100456.14;1667260;84;26097;-73
2021/05/08 01:31:00;;;;;;;15.80;10.65;;;;;;;5.62;84.60;100454.00;1646859;84;27531;-72
2021/05/08 01:33:28;;;;;;;14.55;10.55;;;;;;;5.64;84.67;100460.48;1667520;84;25793;-73
2021/05/08 01:35:56;;;;;;;13.08;10.20;;;;;;;5.63;84.73;100461.45;1665955;84;25882;-72
2021/05/08 01:38:25;;;;;;;11.93;9.08;;;;;;;5.63;84.78;100469.42;1678694;84;26122;-73
2021/05/08 01:41:07;;;;;;;10.85;8.90;;;;;;;5.60;84.88;100469.27;1650034;84;25735;-73
2021/05/08 01:43:35;;;;;;;12.68;9.03;;;;;;;5.59;84.86;100472.06;1664707;84;27553;-73
2021/05/08 01:46:03;;;;;;;11.33;7.97;;;;;;;5.58;84.93;100480.52;1643798;84;26032;-73
2021/05/08 01:48:31;;;;;;;12.55;9.58;;;;;;;5.58;84.99;100481.05;1666830;84;25723;-72
2021/05/08 01:50:59;;;;;;;10.93;8.98;;;;;;;5.58;84.96;100482.38;1666545;84;25861;-72
2021/05/08 01:53:27;;;;;;;10.15;8.63;;;;;;;5.57;85.03;100482.02;1648135;84;26106;-73
2021/05/08 01:55:55;;;;;;;11.60;8.45;;;;;;;5.57;85.02;100482.02;1679480;83;27079;-73
2021/05/08 01:58:23;;;;;;;10.00;8.05;;;;;;;5.57;85.00;100491.32;1717060;83;26421;-73
2021/05/08 02:00:52;;;;;;;8.83;7.58;;;;;;;5.56;85.03;100487.02;1691191;83;25875;-73
2021/05/08 02:03:21;;;;;;;7.92;6.85;;;;;;;5.56;85.09;100490.48;1693280;83;25784;-73
2021/05/08 02:05:48;;;;;;;10.20;7.47;;;;;;;5.57;84.99;100493.98;1686793;83;25844;-73
2021/05/08 02:08:25;;;;;;;11.53;6.62;;;;;;;5.60;84.94;100493.19;1793384;79;25692;-73
2021/05/08 02:10:53;;;;;;;9.75;7.00;;;;;;;5.54;84.87;100495.64;1723557;82;25974;-73
2021/05/08 02:13:21;;;;;;;7.53;6.30;;;;;;;5.53;84.94;100496.12;1730049;82;27504;-73
2021/05/08 02:15:48;;;;;;;10.15;6.47;;;;;;;5.54;84.92;100498.30;1683903;82;25796;-73
2021/05/08 02:18:16;;;;;;;9.95;6.95;;;;;;;5.53;84.79;100504.09;1743647;81;25736;-72
2021/05/08 02:20:45;;;;;;;10.20;6.10;;;;;;;5.52;84.86;100506.40;1706544;82;26454;-73
2021/05/08 02:23:17;;;;;;;7.55;6.60;;;;;;;5.52;84.77;100517.55;1729026;82;25757;-73
2021/05/08 02:25:47;;;;;;;10.18;6.62;;;;;;;5.53;84.74;100520.52;1730648;82;27553;-74
2021/05/08 02:28:14;;;;;;;6.78;5.70;;;;;;;5.53;84.70;100519.20;1690805;82;25798;-73
2021/05/08 02:30:43;;;;;;;8.90;6.15;;;;;;;5.52;84.76;100522.86;1672497;82;25889;-72
2021/05/08 02:33:10;;;;;;;9.28;6.00;;;;;;;5.54;84.65;100526.19;1728540;82;25832;-73
2021/05/08 02:35:40;;;;;;;9.25;7.33;;;;;;;5.55;84.65;100529.17;1714940;82;25577;-73
2021/05/08 02:38:08;;;;;;;9.23;7.17;;;;;;;5.54;84.58;100530.17;1665144;82;28474;-73
2021/05/08 02:40:38;;;;;;;11.00;7.42;;;;;;;5.55;84.62;100530.01;1694133;82;25630;-73
2021/05/08 02:43:08;;;;;;;8.48;7.47;;;;;;;5.55;84.77;100532.66;1738373;82;25715;-73
2021/05/08 02:45:36;;;;;;;10.28;7.80;;;;;;;5.53;84.47;100535.13;1735087;82;35325;-73
2021/05/08 02:48:04;;;;;;;7.75;6.90;;;;;;;5.52;84.43;100545.44;1712560;82;25827;-74
2021/05/08 02:50:34;;;;;;;8.15;6.53;;;;;;;5.46;84.27;100545.06;1699979;82;26566;-73
2021/05/08 02:53:03;;;;;;;9.38;6.87;;;;;;;5.44;84.27;100550.18;1716890;80;26478;-75
2021/05/08 02:55:32;;;;;;;9.10;6.22;;;;;;;5.39;84.11;100558.61;1701377;82;25843;-73
2021/05/08 02:58:02;;;;;;;9.45;6.55;;;;;;;5.37;84.26;100561.91;1691901;82;25911;-73
2021/05/08 03:00:29;;;;;;;9.13;6.90;;;;;;;5.36;84.10;100566.06;1744026;81;25701;-73
2021/05/08 03:02:57;;;;;;;10.15;6.80;;;;;;;5.30;84.05;100572.00;1732687;82;27512;-73
2021/05/08 03:05:25;;;;;;;8.73;6.47;;;;;;;5.29;84.38;100576.95;1708886;82;25878;-75
2021/05/08 03:07:54;;;;;;;8.53;6.25;;;;;;;5.25;84.17;100575.59;1657980;82;25814;-73
2021/05/08 03:10:22;;;;;;;10.28;7.75;;;;;;;5.23;84.23;100577.09;1731200;82;25654;-73
2021/05/08 03:12:49;;;;;;;6.87;5.92;;;;;;;5.22;84.04;100580.71;1735510;82;26156;-73
2021/05/08 03:15:17;;;;;;;7.42;5.92;;;;;;;5.21;83.93;100582.20;1705501;82;27535;-73
2021/05/08 03:17:44;;;;;;;9.40;6.45;;;;;;;5.18;83.87;100587.80;1686874;82;26532;-73
2021/05/08 03:20:13;;;;;;;7.25;5.87;;;;;;;5.14;83.71;100592.59;1700727;82;25896;-72
2021/05/08 03:22:41;;;;;;;10.38;6.95;;;;;;;5.12;83.69;100590.59;1731433;82;25878;-73
2021/05/08 03:25:10;;;;;;;8.60;7.08;;;;;;;5.09;83.62;100588.74;1720819;82;25813;-73
2021/05/08 03:27:38;;;;;;;10.95;7.58;;;;;;;5.09;83.74;100592.73;1689883;82;26909;-73
2021/05/08 03:30:08;;;;;;;11.93;8.13;;;;;;;5.10;83.74;100605.00;1703334;81;25873;-72
2021/05/08 03:32:35;;;;;;;8.88;7.55;;;;;;;5.09;83.62;100595.38;1733889;82;25838;-73
2021/05/08 03:35:05;;;;;;;9.85;6.60;;;;;;;5.07;83.61;100604.80;1678998;82;25732;-73
2021/05/08 03:37:32;;;;;;;8.00;6.20;;;;;;;5.07;83.76;100610.11;1673432;82;25799;-73
2021/05/08 03:40:00;;;;;;;7.25;6.53;;;;;;;5.06;83.89;100605.80;1698893;82;27350;-72
2021/05/08 03:42:27;;;;;;;8.28;6.92;;;;;;;5.05;83.96;100608.10;1732051;82;25691;-72
2021/05/08 03:44:54;;;;;;;8.05;6.60;;;;;;;5.08;84.01;100619.76;1680562;82;25753;-73
2021/05/08 03:47:21;;;;;;;8.53;7.17;;;;;;;5.10;84.02;100619.11;1700714;81;26137;-73
2021/05/08 03:49:49;;;;;;;8.25;7.22;;;;;;;5.13;84.02;100624.10;1700099;82;25370;-72
2021/05/08 03:52:16;;;;;;;8.05;7.17;;;;;;;5.16;84.06;100626.47;1731142;82;27535;-73
2021/05/08 03:54:44;;;;;;;8.13;7.08;;;;;;;5.16;84.12;100629.12;1672758;82;25730;-72
2021/05/08 03:57:11;;;;;;;8.55;7.47;;;;;;;5.19;84.20;100628.83;1686717;82;26135;-72
2021/05/08 03:59:39;;;;;;;8.15;7.30;;;;;;;5.21;84.14;100631.33;1706700;82;26409;-73
2021/05/08 04:02:06;;;;;;;7.97;6.53;;;;;;;5.21;84.16;100638.81;1715630;82;26611;-73
2021/05/08 04:04:33;;;;;;;11.25;9.90;;;;;;;5.22;84.21;100636.96;1689601;82;27605;-74
2021/05/08 04:07:01;;;;;;;18.82;15.40;;;;;;;5.21;84.23;100638.81;1668175;81;25759;-72
2021/05/08 04:09:28;;;;;;;13.65;12.25;;;;;;;5.24;84.37;100643.80;1701439;82;25873;-73
2021/05/08 04:11:55;;;;;;;11.60;10.28;;;;;;;5.27;84.33;100648.82;1724816;82;25700;-73
2021/05/08 04:14:23;;;;;;;9.35;8.28;;;;;;;5.26;84.25;100645.00;1659871;82;25985;-73
2021/05/08 04:16:50;;;;;;;8.25;6.83;;;;;;;5.26;84.40;100650.31;1687161;82;28441;-73
2021/05/08 04:19:17;;;;;;;7.20;6.50;;;;;;;5.23;84.16;100658.08;1704858;82;26472;-73
2021/05/08 04:21:45;;;;;;;9.33;6.75;;;;;;;5.22;84.25;100660.37;1726385;82;25782;-74
2021/05/08 04:24:12;;;;;;;8.35;6.65;;;;;;;5.24;84.64;100666.86;1687469;82;26453;-73
2021/05/08 04:26:39;;;;;;;6.83;6.12;;;;;;;5.23;84.46;100669.19;1689281;82;26081;-74
2021/05/08 04:29:07;;;;;;;8.08;6.72;;;;;;;5.24;84.52;100669.03;1682795;82;27311;-74
2021/05/08 04:31:35;;;;;;;10.88;7.97;;;;;;;5.23;84.37;100668.70;1727174;82;25794;-72
2021/05/08 04:34:03;;;;;;;7.33;6.20;;;;;;;5.25;84.48;100668.05;1685831;82;25980;-72
2021/05/08 04:36:30;;;;;;;7.85;7.05;;;;;;;5.26;84.51;100674.20;1688811;82;25845;-72
2021/05/08 04:38:58;;;;;;;8.33;6.95;;;;;;;5.26;84.35;100671.03;1703004;82;25864;-72
2021/05/08 04:41:25;;;;;;;6.42;5.67;;;;;;;5.28;84.42;100671.72;1725206;82;27535;-73
2021/05/08 04:43:52;;;;;;;8.30;6.80;;;;;;;5.32;84.74;100670.94;1685069;82;25832;-72
2021/05/08 04:46:22;;;;;;;8.53;7.17;;;;;;;5.32;84.51;100673.08;1684226;82;26342;-74
2021/05/08 04:48:52;;;;;;;9.15;7.12;;;;;;;5.38;84.57;100676.97;1737623;82;27061;-72
2021/05/08 04:51:19;;;;;;;11.63;7.37;;;;;;;5.45;84.61;100684.69;1724503;82;25705;-74
2021/05/08 04:53:48;;;;;;;9.13;7.37;;;;;;;5.53;84.51;100679.92;1706323;82;27514;-73
2021/05/08 04:56:16;;;;;;;8.35;6.95;;;;;;;5.59;84.40;100682.81;1710618;82;25758;-73
2021/05/08 04:58:44;;;;;;;8.90;7.12;;;;;;;5.65;84.49;100683.52;1702095;82;25945;-73
2021/05/08 05:01:11;;;;;;;7.78;6.65;;;;;;;5.74;84.37;100680.44;1722396;82;26424;-73
2021/05/08 05:03:39;;;;;;;10.68;7.20;;;;;;;5.79;84.43;100679.49;1685373;82;26762;-72
2021/05/08 05:06:07;;;;;;;8.90;6.95;;;;;;;5.84;84.28;100685.19;1691884;82;27566;-73
2021/05/08 05:08:34;;;;;;;8.98;6.92;;;;;;;5.87;83.94;100696.38;1692081;82;25824;-72
2021/05/08 05:11:01;;;;;;;9.23;6.55;;;;;;;5.90;83.97;100693.39;1731373;81;25874;-73
2021/05/08 05:13:29;;;;;;;8.35;6.60;;;;;;;5.89;83.94;100694.39;1687699;82;26101;-73
2021/05/08 05:15:56;;;;;;;9.40;6.72;;;;;;;5.86;83.55;100701.34;1691599;82;25801;-73
2021/05/08 05:18:23;;;;;;;8.38;6.35;;;;;;;5.90;83.58;100705.88;1709918;82;27321;-73
2021/05/08 05:20:53;;;;;;;13.15;7.25;;;;;;;5.95;83.87;100705.73;1730607;82;25850;-74
2021/05/08 05:23:20;;;;;;;11.18;9.03;;;;;;;6.04;84.04;100699.50;1694547;82;25948;-73
2021/05/08 05:25:48;;;;;;;9.50;8.15;;;;;;;6.12;83.75;100702.20;1707164;82;26141;-71
2021/05/08 05:28:24;;;;;;;16.35;10.03;;;;;;;6.20;83.58;100694.27;1740323;81;25398;-73
2021/05/08 05:30:52;;;;;;;10.05;7.75;;;;;;;6.28;83.73;100706.81;1729231;82;28868;-73
2021/05/08 05:33:20;;;;;;;9.50;7.55;;;;;;;6.36;83.53;100709.52;1691142;82;25920;-73
2021/05/08 05:35:49;;;;;;;11.03;7.30;;;;;;;6.43;83.66;100713.22;1717596;82;25871;-73
2021/05/08 05:38:16;;;;;;;10.53;8.45;;;;;;;6.47;83.79;100714.58;1707232;82;25739;-72
2021/05/08 05:40:45;;;;;;;8.15;6.95;;;;;;;6.53;83.63;100717.93;1706519;82;26212;-74
2021/05/08 05:43:12;;;;;;;11.12;6.67;;;;;;;6.59;83.62;100709.31;1728898;82;27026;-74
2021/05/08 05:45:39;;;;;;;7.08;6.05;;;;;;;6.58;82.70;100719.63;1686916;82;26261;-72
2021/05/08 05:48:07;;;;;;;12.33;6.53;;;;;;;6.56;83.11;100724.28;1691536;82;25793;-72
2021/05/08 05:50:41;;;;;;;6.78;4.87;;;;;;;6.59;83.32;100727.09;1709225;82;26003;-72
2021/05/08 05:53:09;;;;;;;6.37;5.30;;;;;;;6.58;82.61;100729.44;1729145;82;25718;-73
2021/05/08 05:55:36;;;;;;;9.48;6.20;;;;;;;6.51;82.61;100733.22;1696962;82;28463;-72
2021/05/08 05:58:04;;;;;;;11.00;5.85;;;;;;;6.53;82.82;100738.37;1693340;82;25759;-72
2021/05/08 06:00:31;;;;;;;7.10;5.28;;;;;;;6.55;83.01;100731.91;1708733;82;25737;-72
2021/05/08 06:02:58;;;;;;;7.55;5.47;;;;;;;6.58;83.10;100729.44;1701292;82;25840;-73
2021/05/08 06:05:26;;;;;;;7.87;5.97;;;;;;;6.61;83.05;100741.92;1691672;82;26400;-73
2021/05/08 06:07:53;;;;;;;9.30;5.55;;;;;;;6.67;83.08;100735.15;1692203;82;27512;-73
2021/05/08 06:10:20;;;;;;;7.72;5.60;;;;;;;6.72;82.76;100738.15;1699180;82;25578;-73
2021/05/08 06:12:48;;;;;;;9.75;6.12;;;;;;;6.79;82.83;100743.19;1729084;82;26547;-73
2021/05/08 06:15:15;;;;;;;9.93;7.12;;;;;;;6.87;82.52;100740.55;1661187;85;25879;-73
2021/05/08 06:17:42;;;;;;;9.38;5.53;;;;;;;6.93;82.17;100738.58;1631195;85;26061;-72
2021/05/08 06:20:11;;;;;;;11.05;5.47;;;;;;;6.97;82.17;100741.29;1649999;85;28301;-73
2021/05/08 06:22:39;;;;;;;7.58;5.70;;;;;;;7.03;81.97;100740.12;1670535;85;25743;-73
2021/05/08 06:25:07;;;;;;;13.78;6.40;;;;;;;7.09;82.06;100739.99;1632775;85;26726;-73
2021/05/08 06:27:34;;;;;;;10.60;6.92;;;;;;;7.15;81.49;100737.17;1634726;85;25837;-73
2021/05/08 06:30:01;;;;;;;8.00;6.42;;;;;;;7.18;81.52;100738.20;1647052;85;25906;-73
2021/05/08 06:32:29;;;;;;;7.75;5.50;;;;;;;7.27;81.34;100746.55;1673530;85;27650;-73
2021/05/08 06:34:56;;;;;;;8.40;6.37;;;;;;;7.41;81.24;100749.91;1622612;85;26432;-73
2021/05/08 06:37:24;;;;;;;12.88;7.65;;;;;;;7.45;81.20;100754.77;1635721;85;25967;-73
2021/05/08 06:39:52;;;;;;;10.82;6.67;;;;;;;7.46;80.96;100756.94;1681010;85;25859;-73
2021/05/08 06:42:19;;;;;;;7.83;6.90;;;;;;;7.45;80.57;100760.09;1671471;85;25712;-72
2021/05/08 06:44:46;;;;;;;10.55;8.60;;;;;;;7.47;80.30;100759.43;1634574;85;27548;-74
2021/05/08 06:47:15;;;;;;;9.93;8.55;;;;;;;7.46;80.18;100761.74;1636359;85;26567;-72
2021/05/08 06:49:43;;;;;;;9.55;6.37;;;;;;;7.46;80.30;100760.41;1681403;84;25843;-73
2021/05/08 06:52:11;;;;;;;9.80;7.55;;;;;;;7.48;79.81;100768.27;1671123;85;26401;-74
2021/05/08 06:54:39;;;;;;;11.45;8.33;;;;;;;7.53;80.12;100769.92;1632877;85;25909;-73
2021/05/08 06:57:06;;;;;;;12.68;7.17;;;;;;;7.53;79.80;100773.92;1622442;85;27574;-74
2021/05/08 06:59:33;;;;;;;10.35;6.55;;;;;;;7.53;79.55;100773.92;1646144;85;26180;-74
2021/05/08 07:02:01;;;;;;;9.73;6.47;;;;;;;7.50;79.36;100782.27;1665818;85;26236;-74
2021/05/08 07:04:28;;;;;;;9.00;6.78;;;;;;;7.50;79.72;100783.10;1657106;85;26441;-72
2021/05/08 07:06:56;;;;;;;7.72;6.75;;;;;;;7.56;79.81;100781.61;1600796;85;26579;-73
2021/05/08 07:09:23;;;;;;;8.43;6.08;;;;;;;7.62;79.84;100783.61;1637638;85;27354;-73
2021/05/08 07:11:50;;;;;;;8.98;5.95;;;;;;;7.67;79.20;100790.14;1669311;83;26083;-73
2021/05/08 07:14:18;;;;;;;6.90;5.45;;;;;;;7.76;79.57;100787.80;1644786;85;25823;-72
2021/05/08 07:16:45;;;;;;;6.67;6.03;;;;;;;7.84;79.29;100791.00;1662644;84;26096;-74
2021/05/08 07:19:12;;;;;;;13.05;6.58;;;;;;;8.01;79.31;100786.52;1644170;86;26186;-74
2021/05/08 07:21:40;;;;;;;10.30;6.17;;;;;;;8.16;79.18;100788.86;1674885;84;28480;-73
2021/05/08 07:24:08;;;;;;;7.50;5.92;;;;;;;8.15;77.49;100786.68;1638279;84;26540;-73
2021/05/08 07:26:35;;;;;;;12.05;6.05;;;;;;;8.17;77.28;100787.88;1637275;84;25810;-73
2021/05/08 07:29:03;;;;;;;7.65;6.22;;;;;;;8.14;77.11;100786.86;1660540;84;25827;-73
2021/05/08 07:31:30;;;;;;;9.25;5.40;;;;;;;8.11;76.69;100806.70;1649230;84;26144;-73
2021/05/08 07:33:57;;;;;;;6.87;5.53;;;;;;;8.14;76.63;100797.53;1649090;86;27551;-73
2021/05/08 07:36:25;;;;;;;8.08;5.85;;;;;;;8.14;77.35;100805.05;1639397;84;25884;-75
2021/05/08 07:38:52;;;;;;;9.10;6.03;;;;;;;8.15;77.23;100806.69;1655770;84;25824;-73
2021/05/08 07:41:19;;;;;;;9.65;4.53;;;;;;;8.15;76.97;100811.19;1671564;84;25754;-72
2021/05/08 07:43:47;;;;;;;7.90;6.22;;;;;;;8.20;76.15;100807.53;1643785;84;25848;-73
2021/05/08 07:46:14;;;;;;;7.30;4.87;;;;;;;8.28;76.67;100812.41;1645334;84;28571;-73
2021/05/08 07:48:41;;;;;;;9.10;5.85;;;;;;;8.43;76.58;100809.89;1647488;84;26082;-73
2021/05/08 07:51:09;;;;;;;9.65;5.70;;;;;;;8.52;76.46;100816.41;1668543;84;25752;-73
2021/05/08 07:53:36;;;;;;;10.08;5.35;;;;;;;8.61;76.72;100812.39;1642275;84;25946;-72
2021/05/08 07:56:04;;;;;;;5.95;4.70;;;;;;;8.68;75.63;100810.22;1640974;84;25862;-73
2021/05/08 07:58:31;;;;;;;6.40;4.60;;;;;;;8.68;75.47;100809.38;1655731;84;26590;-74
2021/05/08 08:00:58;;;;;;;8.28;4.67;;;;;;;8.81;75.91;100811.03;1639324;84;25812;-73
2021/05/08 08:03:25;;;;;;;8.10;4.58;;;;;;;8.83;75.18;100815.17;1639402;84;26024;-72
2021/05/08 08:05:53;;;;;;;5.92;4.08;;;;;;;8.86;75.16;100816.18;1636571;84;26474;-74
2021/05/08 08:08:20;;;;;;;5.05;4.50;;;;;;;8.86;73.88;100816.67;1649451;84;26049;-73
2021/05/08 08:10:47;;;;;;;6.47;4.62;;;;;;;8.78;73.32;100819.38;1656167;84;28179;-72
2021/05/08 08:13:15;;;;;;;5.45;3.45;;;;;;;8.82;74.29;100812.19;1619292;84;26308;-73
2021/05/08 08:15:42;;;;;;;7.50;3.55;;;;;;;9.01;73.32;100812.30;1631232;84;25823;-73
2021/05/08 08:18:10;;;;;;;8.20;5.40;;;;;;;9.08;71.42;100803.94;1645296;84;26375;-73
2021/05/08 08:20:37;;;;;;;6.78;4.08;;;;;;;9.14;72.83;100809.42;1677561;84;25893;-73
2021/05/08 08:23:05;;;;;;;5.65;4.47;;;;;;;9.23;72.51;100811.08;1636050;84;27553;-73
2021/05/08 08:25:33;;;;;;;11.68;8.28;;;;;;;9.40;73.27;100811.83;1626848;84;26448;-73
2021/05/08 08:28:00;;;;;;;10.03;6.47;;;;;;;9.48;71.67;100817.63;1667480;84;25833;-73
2021/05/08 08:30:27;;;;;;;9.20;5.47;;;;;;;9.39;70.95;100820.03;1672575;84;26358;-73
2021/05/08 08:32:55;;;;;;;12.10;5.10;;;;;;;9.30;71.00;100820.57;1633746;84;25888;-73
2021/05/08 08:35:22;;;;;;;10.63;6.42;;;;;;;9.24;71.64;100813.22;1630987;84;28468;-73
2021/05/08 08:37:49;;;;;;;11.53;6.62;;;;;;;9.43;73.33;100822.16;1668810;84;26541;-74
2021/05/08 08:40:17;;;;;;;9.60;6.42;;;;;;;9.63;71.41;100815.89;1652955;84;25791;-73
2021/05/08 08:42:44;;;;;;;7.78;5.03;;;;;;;9.75;70.02;100817.98;1622477;84;25813;-74
2021/05/08 08:45:13;;;;;;;8.98;4.47;;;;;;;9.79;71.88;100825.17;1628188;84;26049;-72
2021/05/08 08:47:42;;;;;;;5.65;3.20;;;;;;;9.78;69.74;100822.16;1643223;84;28315;-73
2021/05/08 08:50:14;;;;;;;5.58;2.95;;;;;;;9.71;69.67;100819.87;1670648;84;25829;-73
2021/05/08 08:52:42;;;;;;;4.08;2.98;;;;;;;9.73;69.60;100824.02;1635080;84;25872;-73
2021/05/08 08:55:11;;;;;;;8.08;3.37;;;;;;;9.79;69.97;100822.00;1654419;84;25802;-73
2021/05/08 08:57:42;;;;;;;4.37;2.75;;;;;;;9.89;68.75;100823.09;1647907;84;25794;-73
2021/05/08 09:00:13;;;;;;;7.20;2.98;;;;;;;9.96;67.79;100822.73;1674965;84;27537;-73
2021/05/08 09:02:46;;;;;;;5.22;3.10;;;;;;;9.87;67.99;100823.28;1638058;84;26114;-73
2021/05/08 09:05:21;;;;;;;5.65;3.20;;;;;;;9.79;68.15;100817.99;1633491;84;25850;-73
2021/05/08 09:07:50;;;;;;;4.95;3.10;;;;;;;9.71;67.13;100820.69;1685396;84;25849;-73
2021/05/08 09:10:32;;;;;;;3.50;2.35;;;;;;;9.76;67.12;100823.68;1643969;84;25991;-73
2021/05/08 09:13:03;;;;;;;6.20;2.95;;;;;;;9.93;66.66;100827.08;1669721;84;27542;-73
2021/05/08 09:15:44;;;;;;;5.33;2.60;;;;;;;10.18;69.66;100831.81;1646629;84;25824;-72
2021/05/08 09:18:34;;;;;;;3.83;2.53;;;;;;;10.35;66.33;100826.13;1642301;84;25762;-73
2021/05/08 09:21:04;;;;;;;7.67;4.62;;;;;;;10.34;66.06;100835.20;1670871;84;32650;-73
2021/05/08 09:23:42;;;;;;;6.92;3.15;;;;;;;10.28;64.69;100829.72;1672501;84;25711;-74
2021/05/08 09:26:12;;;;;;;6.70;2.58;;;;;;;10.41;67.35;100837.99;1627671;84;27547;-75
2021/05/08 09:28:43;;;;;;;4.33;2.40;;;;;;;10.58;64.32;100833.66;1651924;84;25765;-73
2021/05/08 09:31:14;;;;;;;4.92;1.95;;;;;;;10.66;64.83;100837.60;1645494;84;26289;-74
2021/05/08 09:33:44;;;;;;;;;;;;;;;10.70;63.04;100843.42;1682691;84;25679;-73
2021/05/08 09:36:12;;;;;;;5.05;2.62;;;;;;;10.61;63.20;100844.00;1671236;84;26108;-73
2021/05/08 09:38:41;;;;;;;9.98;2.90;;;;;;;10.52;63.46;100841.59;1646169;84;28465;-73
2021/05/08 09:41:17;;;;;;;3.80;2.55;;;;;;;10.48;64.00;100841.59;1650873;84;26416;-74
2021/05/08 09:43:45;;;;;;;5.10;2.85;;;;;;;10.50;64.06;100831.03;1650770;84;25791;-74
2021/05/08 09:46:28;;;;;;;3.35;2.40;;;;;;;10.66;63.88;100830.91;1655820;84;26130;-73
2021/05/08 09:49:14;;;;;;;7.15;2.87;;;;;;;10.78;64.62;100841.50;1686435;84;26123;-74
2021/05/08 09:51:42;;;;;;;4.28;2.10;;;;;;;10.72;63.93;100850.77;1647781;84;28094;-73
2021/05/08 09:54:13;;;;;;;5.85;2.25;;;;;;;10.47;61.71;100854.67;1646188;84;25851;-75
2021/05/08 09:56:45;;;;;;;5.75;2.52;;;;;;;10.24;62.62;100851.17;1634147;84;25893;-74
2021/05/08 09:59:26;;;;;;;4.53;2.22;;;;;;;10.09;63.35;100854.56;1646014;84;26639;-73
2021/05/08 10:02:09;;;;;;;5.17;2.98;;;;;;;10.00;63.83;100852.98;1687588;84;25623;-74
2021/05/08 10:04:44;;;;;;;7.60;2.77;;;;;;;9.95;64.87;100843.80;1646567;84;27533;-74
2021/05/08 10:07:18;;;;;;;7.05;2.50;;;;;;;9.95;64.32;100842.45;1671518;83;25789;-73
2021/05/08 10:09:47;;;;;;;5.67;2.17;;;;;;;9.94;64.30;100834.92;1653975;84;25843;-75
2021/05/08 10:12:17;;;;;;;4.30;2.40;;;;;;;9.92;63.65;100848.18;1658653;84;25954;-72
2021/05/08 10:14:47;;;;;;;9.50;3.22;;;;;;;9.98;63.02;100847.47;1662105;84;25996;-74
2021/05/08 10:17:19;;;;;;;5.78;1.95;;;;;;;10.16;61.84;100843.20;1658813;84;28128;-72
2021/05/08 10:19:50;;;;;;;3.58;1.85;;;;;;;10.33;62.45;100830.84;1672078;84;26470;-73
2021/05/08 10:22:19;;;;;;;3.67;2.47;;;;;;;10.36;61.91;100841.20;1634129;84;26397;-73
2021/05/08 10:24:47;;;;;;;8.80;3.02;;;;;;;10.36;61.99;100845.72;1658408;84;25653;-72
2021/05/08 10:27:16;;;;;;;5.67;2.80;;;;;;;10.32;60.90;100846.59;1689477;84;25407;-73
2021/05/08 10:29:47;;;;;;;7.83;3.80;;;;;;;10.44;62.72;100845.64;1643319;85;27610;-73
2021/05/08 10:32:17;;;;;;;6.72;2.85;;;;;;;10.52;62.29;100841.59;1622768;86;25770;-73
2021/05/08 10:34:59;;;;;;;8.65;2.90;;;;;;;10.55;61.38;100839.87;1650949;85;26209;-72
2021/05/08 10:37:28;;;;;;;3.65;2.30;;;;;;;10.49;62.17;100853.48;1658448;84;26417;-73
2021/05/08 10:40:06;;;;;;;5.65;2.72;;;;;;;10.52;62.07;100860.33;1659129;84;25902;-73
2021/05/08 10:42:46;;;;;;;4.97;2.17;;;;;;;10.62;60.54;100855.55;1682195;84;27155;-72
2021/05/08 10:45:21;;;;;;;6.60;2.45;;;;;;;10.65;60.92;100861.88;1659927;84;25940;-73
2021/05/08 10:48:03;;;;;;;5.22;2.30;;;;;;;10.73;61.28;100855.93;1680525;84;25770;-73
2021/05/08 10:50:38;;;;;;;6.03;3.10;;;;;;;10.87;62.13;100856.98;1682084;84;25905;-74
2021/05/08 10:53:17;;;;;;;4.28;2.90;;;;;;;10.91;61.59;100857.44;1633322;84;25748;-74
2021/05/08 10:55:54;;;;;;;6.20;2.92;;;;;;;10.88;62.02;100861.84;1654951;84;28459;-74
2021/05/08 10:58:29;;;;;;;4.85;2.50;;;;;;;10.79;61.90;100862.43;1644707;85;26181;-73
2021/05/08 11:01:00;;;;;;;4.80;2.60;;;;;;;10.76;62.22;100860.94;1654168;84;26511;-73
2021/05/08 11:03:30;;;;;;;5.25;1.80;;;;;;;10.75;61.89;100853.93;1678164;84;26278;-74
2021/05/08 11:06:14;;;;;;;3.23;2.57;;;;;;;10.75;60.47;100863.31;1656412;84;25886;-73
2021/05/08 11:08:46;;;;;;;3.55;1.92;;;;;;;10.77;60.39;100857.77;1655925;84;28476;-73
2021/05/08 11:11:22;;;;;;;4.72;1.98;;;;;;;10.79;60.74;100863.77;1667871;84;26085;-74
2021/05/08 11:13:54;;;;;;;5.95;2.37;;;;;;;10.83;60.38;100858.37;1659761;84;25565;-73
2021/05/08 11:16:30;;;;;;;9.43;2.42;;;;;;;10.88;61.21;100852.77;1657456;84;25818;-72
2021/05/08 11:19:00;;;;;;;3.52;2.20;;;;;;;10.95;61.28;100860.92;1662082;84;25783;-72
2021/05/08 11:21:35;;;;;;;7.65;2.95;;;;;;;10.99;60.45;100858.19;1651664;84;27533;-72
2021/05/08 11:24:05;;;;;;;5.17;2.47;;;;;;;10.94;58.56;100853.91;1653453;84;26427;-73
2021/05/08 11:26:36;;;;;;;4.73;2.63;;;;;;;10.86;58.92;100858.83;1661942;84;25912;-74
2021/05/08 11:29:20;;;;;;;3.77;2.10;;;;;;;10.85;58.49;100860.36;1666241;84;26367;-73
2021/05/08 11:31:51;;;;;;;6.00;2.50;;;;;;;10.81;58.73;100863.08;1668192;84;25788;-73
2021/05/08 11:34:32;;;;;;;;;;;;;;;10.80;59.48;100865.42;1656429;84;28230;-73
2021/05/08 11:37:11;;;;;;;6.53;2.37;;;;;;;10.88;59.78;100867.20;1636999;84;26216;-73
2021/05/08 11:39:45;;;;;;;5.97;1.98;;;;;;;10.95;59.21;100864.13;1676970;84;25794;-72
2021/05/08 11:42:23;;;;;;;5.22;2.50;;;;;;;11.18;61.03;100862.20;1651833;84;25657;-73